createdAt,value
2018-09-15T00:00:25.224Z,19.30
2018-09-15T00:02:29.558Z,19.30
2018-09-15T00:04:34.224Z,19.30
2018-09-15T00:06:38.234Z,19.30
2018-09-15T00:08:42.550Z,19.30
2018-09-15T00:10:47.287Z,19.40
2018-09-15T00:12:51.337Z,19.40
2018-09-15T00:14:57.177Z,19.40
2018-09-15T00:17:01.194Z,19.50
2018-09-15T00:19:06.544Z,19.50
2018-09-15T00:21:11.489Z,19.50
2018-09-15T00:23:16.319Z,19.40
2018-09-15T00:25:20.503Z,19.50
2018-09-15T00:27:24.954Z,19.40
2018-09-15T00:29:29.079Z,19.40
2018-09-15T00:31:33.187Z,19.30
2018-09-15T00:33:37.249Z,19.30
2018-09-15T00:35:41.235Z,19.30
2018-09-15T00:37:45.264Z,19.20
2018-09-15T00:39:49.623Z,19.30
2018-09-15T00:41:53.783Z,19.30
2018-09-15T00:43:57.800Z,19.30
2018-09-15T00:46:01.781Z,19.30
2018-09-15T00:48:06.668Z,19.30
2018-09-15T00:50:10.632Z,19.30
2018-09-15T00:52:14.929Z,19.20
2018-09-15T00:54:18.957Z,19.20
2018-09-15T00:56:23.133Z,19.20
2018-09-15T00:58:28.474Z,19.00
2018-09-15T01:00:33.170Z,19.00
2018-09-15T01:02:37.396Z,18.90
2018-09-15T01:04:43.089Z,18.80
2018-09-15T01:06:47.066Z,18.70
2018-09-15T01:08:51.113Z,18.60
2018-09-15T01:10:56.444Z,18.50
2018-09-15T01:13:02.378Z,18.50
2018-09-15T01:15:06.432Z,18.50
2018-09-15T01:17:11.696Z,18.40
2018-09-15T01:19:15.684Z,18.40
2018-09-15T01:21:19.713Z,18.30
2018-09-15T01:23:25.318Z,18.20
2018-09-15T01:27:42.460Z,18.20
2018-09-15T01:29:46.464Z,18.10
2018-09-15T01:31:50.440Z,18.10
2018-09-15T01:33:55.065Z,17.90
2018-09-15T01:36:00.949Z,17.80
2018-09-15T01:38:04.936Z,17.80
2018-09-15T01:40:09.002Z,17.70
2018-09-15T01:42:14.008Z,17.20
2018-09-15T01:44:19.025Z,17.20
2018-09-15T01:46:23.025Z,17.40
2018-09-15T01:48:28.345Z,17.40
2018-09-15T01:50:33.089Z,17.50
2018-09-15T01:52:38.609Z,17.50
2018-09-15T01:54:44.260Z,16.90
2018-09-15T01:56:50.290Z,16.70
2018-09-15T01:58:55.824Z,17.00
2018-09-15T02:01:02.097Z,17.20
2018-09-15T02:03:07.585Z,17.20
2018-09-15T02:05:12.440Z,16.90
2018-09-15T02:07:20.665Z,17.00
2018-09-15T02:09:24.692Z,17.10
2018-09-15T02:11:28.756Z,17.10
2018-09-15T02:13:34.260Z,17.00
2018-09-15T02:15:38.242Z,16.90
2018-09-15T02:17:42.205Z,17.00
2018-09-15T02:19:46.556Z,17.00
2018-09-15T02:21:50.584Z,17.00
2018-09-15T02:23:55.782Z,16.80
2018-09-15T02:26:00.748Z,16.90
2018-09-15T02:28:06.188Z,17.10
2018-09-15T02:30:13.376Z,17.20
2018-09-15T02:32:18.832Z,17.30
2018-09-15T02:34:25.641Z,17.10
2018-09-15T02:36:30.646Z,17.30
2018-09-15T02:38:36.470Z,17.40
2018-09-15T02:40:41.015Z,17.40
2018-09-15T02:42:48.053Z,17.40
2018-09-15T02:44:55.418Z,17.40
2018-09-15T02:47:02.184Z,17.40
2018-09-15T02:49:06.204Z,17.40
2018-09-15T02:51:10.517Z,17.40
2018-09-15T02:53:14.469Z,17.40
2018-09-15T02:55:19.689Z,17.40
2018-09-15T02:57:28.550Z,17.40
2018-09-15T02:59:34.380Z,17.30
2018-09-15T03:01:40.218Z,17.20
2018-09-15T03:03:46.308Z,17.30
2018-09-15T03:05:50.392Z,17.40
2018-09-15T03:07:57.779Z,17.40
2018-09-15T03:10:01.742Z,17.50
2018-09-15T03:12:05.865Z,17.50
2018-09-15T03:14:12.772Z,17.40
2018-09-15T03:16:17.557Z,17.40
2018-09-15T03:18:22.561Z,17.40
2018-09-15T03:20:27.610Z,17.40
2018-09-15T03:22:32.517Z,17.50
2018-09-15T03:24:36.772Z,17.50
2018-09-15T03:26:41.970Z,17.50
2018-09-15T03:28:46.329Z,17.60
2018-09-15T03:30:51.335Z,17.50
2018-09-15T03:32:55.700Z,17.60
2018-09-15T03:35:01.502Z,17.60
2018-09-15T03:37:05.784Z,17.50
2018-09-15T03:39:12.203Z,17.40
2018-09-15T03:41:17.401Z,17.40
2018-09-15T03:43:21.329Z,17.40
2018-09-15T03:45:32.179Z,17.50
2018-09-15T03:47:36.150Z,17.40
2018-09-15T03:49:40.539Z,17.30
2018-09-15T03:51:48.126Z,17.20
2018-09-15T03:53:52.747Z,17.10
2018-09-15T03:55:57.556Z,17.10
2018-09-15T03:58:03.720Z,17.00
2018-09-15T04:00:07.773Z,16.90
2018-09-15T04:02:12.394Z,16.80
2018-09-15T04:04:17.348Z,16.70
2018-09-15T04:06:22.258Z,16.60
2018-09-15T04:08:26.196Z,16.60
2018-09-15T04:10:30.193Z,16.50
2018-09-15T04:12:35.438Z,16.40
2018-09-15T04:14:39.418Z,16.30
2018-09-15T04:16:46.299Z,16.30
2018-09-15T04:18:51.244Z,16.20
2018-09-15T04:20:55.835Z,16.20
2018-09-15T04:23:01.049Z,16.10
2018-09-15T04:25:05.076Z,16.00
2018-09-15T04:27:09.481Z,16.00
2018-09-15T04:29:14.017Z,16.00
2018-09-15T04:31:18.026Z,16.00
2018-09-15T04:33:22.550Z,16.00
2018-09-15T04:35:33.431Z,16.00
2018-09-15T04:37:38.520Z,15.90
2018-09-15T04:39:42.463Z,15.80
2018-09-15T04:41:47.634Z,15.70
2018-09-15T04:43:51.617Z,15.70
2018-09-15T04:45:56.196Z,15.70
2018-09-15T04:48:01.155Z,15.60
2018-09-15T04:50:05.313Z,15.60
2018-09-15T04:52:13.417Z,15.60
2018-09-15T04:54:17.668Z,15.60
2018-09-15T04:56:22.618Z,15.50
2018-09-15T04:58:26.671Z,15.50
2018-09-15T05:00:32.991Z,15.50
2018-09-15T05:02:38.066Z,15.40
2018-09-15T05:04:43.459Z,15.40
2018-09-15T05:06:52.461Z,15.30
2018-09-15T05:08:57.953Z,15.30
2018-09-15T05:11:01.973Z,15.30
2018-09-15T05:13:06.221Z,15.40
2018-09-15T05:15:13.339Z,15.50
2018-09-15T05:17:17.376Z,15.50
2018-09-15T05:19:22.061Z,15.60
2018-09-15T05:21:28.855Z,15.60
2018-09-15T05:23:33.099Z,15.60
2018-09-15T05:25:37.365Z,15.70
2018-09-15T05:27:41.288Z,15.70
2018-09-15T05:29:45.334Z,15.80
2018-09-15T05:31:53.688Z,15.90
2018-09-15T05:33:57.738Z,16.00
2018-09-15T05:36:01.681Z,16.10
2018-09-15T05:38:06.148Z,16.20
2018-09-15T05:40:10.222Z,16.40
2018-09-15T05:42:14.259Z,16.50
2018-09-15T05:44:22.625Z,16.70
2018-09-15T05:46:26.555Z,16.90
2018-09-15T05:48:31.218Z,17.10
2018-09-15T05:50:35.492Z,17.30
2018-09-15T05:52:42.228Z,17.50
2018-09-15T05:54:46.289Z,17.70
2018-09-15T05:56:50.853Z,17.90
2018-09-15T05:58:54.900Z,18.00
2018-09-15T06:00:59.604Z,18.30
2018-09-15T06:03:03.601Z,18.60
2018-09-15T06:05:07.889Z,18.80
2018-09-15T06:07:11.898Z,18.90
2018-09-15T06:09:16.208Z,19.00
2018-09-15T06:11:20.200Z,19.10
2018-09-15T06:13:30.678Z,19.20
2018-09-15T06:15:34.696Z,19.20
2018-09-15T06:17:38.767Z,19.20
2018-09-15T06:19:42.846Z,19.10
2018-09-15T06:21:47.221Z,18.90
2018-09-15T06:23:52.283Z,18.90
2018-09-15T06:25:56.441Z,18.70
2018-09-15T06:28:03.009Z,18.70
2018-09-15T06:30:07.873Z,18.60
2018-09-15T06:32:13.641Z,18.50
2018-09-15T06:34:21.716Z,18.60
2018-09-15T06:38:35.918Z,18.40
2018-09-15T06:40:40.841Z,18.50
2018-09-15T06:42:44.884Z,18.50
2018-09-15T06:44:48.933Z,18.60
2018-09-15T06:46:53.233Z,18.70
2018-09-15T06:49:00.930Z,18.90
2018-09-15T06:51:07.364Z,18.80
2018-09-15T06:53:13.951Z,19.00
2018-09-15T06:55:17.907Z,19.40
2018-09-15T06:57:21.946Z,19.50
2018-09-15T06:59:29.604Z,19.90
2018-09-15T07:01:34.810Z,20.10
2018-09-15T07:03:40.395Z,20.20
2018-09-15T07:05:50.233Z,20.20
2018-09-15T07:07:54.233Z,20.20
2018-09-15T07:10:02.350Z,20.40
2018-09-15T07:12:06.732Z,20.40
2018-09-15T07:14:11.969Z,20.50
2018-09-15T07:16:16.886Z,20.80
2018-09-15T07:18:21.297Z,20.80
2018-09-15T07:20:25.274Z,20.50
2018-09-15T07:22:30.017Z,20.60
2018-09-15T07:24:34.243Z,20.80
2018-09-15T07:26:38.294Z,21.10
2018-09-15T07:28:42.224Z,21.40
2018-09-15T07:30:47.237Z,21.50
2018-09-15T07:32:52.469Z,21.70
2018-09-15T07:34:56.588Z,21.70
2018-09-15T07:37:00.718Z,22.00
2018-09-15T07:39:08.413Z,22.40
2018-09-15T07:41:13.432Z,22.60
2018-09-15T07:43:23.730Z,22.90
2018-09-15T07:45:29.025Z,23.20
2018-09-15T07:47:33.613Z,23.50
2018-09-15T07:49:40.155Z,23.80
2018-09-15T07:51:44.365Z,23.80
2018-09-15T07:56:18.366Z,23.50
2018-09-15T07:58:31.870Z,23.10
2018-09-15T08:00:47.076Z,23.10
2018-09-15T08:02:53.041Z,23.50
2018-09-15T08:04:58.242Z,23.90
2018-09-15T08:07:04.060Z,24.00
2018-09-15T08:09:09.369Z,23.50
2018-09-15T08:11:14.378Z,23.30
2018-09-15T08:13:20.788Z,23.40
2018-09-15T08:15:28.462Z,23.20
2018-09-15T08:17:32.405Z,22.60
2018-09-15T08:19:39.344Z,22.30
2018-09-15T08:21:43.345Z,22.80
2018-09-15T08:23:48.854Z,23.30
2018-09-15T08:25:54.177Z,23.70
2018-09-15T08:27:59.709Z,23.90
2018-09-15T08:30:03.891Z,23.60
2018-09-15T08:32:09.336Z,23.60
2018-09-15T08:34:14.486Z,23.80
2018-09-15T08:36:19.511Z,23.70
2018-09-15T08:38:25.190Z,23.80
2018-09-15T08:40:29.309Z,24.10
2018-09-15T08:42:34.348Z,24.50
2018-09-15T08:44:41.743Z,24.80
2018-09-15T08:46:45.756Z,24.90
2018-09-15T08:48:50.964Z,25.30
2018-09-15T08:50:58.489Z,25.30
2018-09-15T08:53:04.318Z,25.50
2018-09-15T08:55:10.273Z,25.40
2018-09-15T08:57:14.243Z,25.20
2018-09-15T08:59:18.833Z,25.00
2018-09-15T09:01:23.603Z,24.80
2018-09-15T09:03:32.537Z,24.70
2018-09-15T09:05:37.440Z,24.80
2018-09-15T09:07:42.418Z,24.80
2018-09-15T09:09:46.511Z,24.80
2018-09-15T09:11:51.146Z,24.80
2018-09-15T09:13:55.121Z,24.80
2018-09-15T09:16:01.157Z,24.80
2018-09-15T09:18:06.579Z,24.80
2018-09-15T09:20:11.665Z,24.70
2018-09-15T09:22:15.627Z,24.40
2018-09-15T09:24:21.100Z,24.50
2018-09-15T09:26:26.574Z,24.50
2018-09-15T09:28:32.629Z,24.60
2018-09-15T09:30:36.827Z,24.70
2018-09-15T09:32:41.511Z,25.00
2018-09-15T09:34:45.601Z,25.30
2018-09-15T09:36:50.748Z,25.50
2018-09-15T09:38:55.653Z,25.90
2018-09-15T09:41:01.763Z,26.20
2018-09-15T09:43:06.513Z,26.20
2018-09-15T09:45:13.153Z,26.40
2018-09-15T09:47:17.182Z,26.00
2018-09-15T09:49:22.010Z,25.70
2018-09-15T09:51:26.273Z,26.00
2018-09-15T09:53:30.276Z,25.80
2018-09-15T09:55:36.942Z,25.90
2018-09-15T09:57:40.920Z,26.00
2018-09-15T09:59:44.971Z,26.10
2018-09-15T10:01:55.089Z,26.10
2018-09-15T10:04:00.856Z,26.10
2018-09-15T10:06:05.187Z,26.30
2018-09-15T10:08:09.308Z,26.50
2018-09-15T10:10:13.414Z,26.50
2018-09-15T10:12:17.436Z,26.40
2018-09-15T10:14:21.442Z,26.60
2018-09-15T10:16:25.936Z,26.70
2018-09-15T10:18:29.981Z,26.20
2018-09-15T10:20:35.892Z,26.10
2018-09-15T10:22:41.523Z,26.40
2018-09-15T10:24:46.393Z,26.90
2018-09-15T10:26:50.441Z,27.00
2018-09-15T10:28:55.791Z,26.90
2018-09-15T10:31:00.846Z,26.90
2018-09-15T10:33:08.737Z,27.10
2018-09-15T10:35:13.158Z,26.90
2018-09-15T10:37:17.792Z,27.30
2018-09-15T10:39:21.799Z,27.70
2018-09-15T10:41:26.185Z,27.20
2018-09-15T10:43:32.594Z,26.90
2018-09-15T10:45:36.577Z,26.70
2018-09-15T10:47:41.859Z,26.90
2018-09-15T10:49:46.689Z,27.10
2018-09-15T10:51:50.814Z,27.30
2018-09-15T10:53:54.804Z,27.20
2018-09-15T10:56:00.349Z,26.90
2018-09-15T10:58:05.389Z,27.00
2018-09-15T11:00:12.629Z,27.00
2018-09-15T11:02:17.429Z,27.10
2018-09-15T11:04:24.768Z,27.40
2018-09-15T11:06:35.775Z,27.40
2018-09-15T11:08:43.210Z,27.20
2018-09-15T11:10:48.250Z,27.00
2018-09-15T11:12:54.501Z,26.70
2018-09-15T11:15:01.631Z,26.20
2018-09-15T11:17:08.034Z,26.30
2018-09-15T11:19:12.462Z,26.30
2018-09-15T11:21:17.726Z,26.20
2018-09-15T11:23:21.739Z,26.20
2018-09-15T11:25:28.213Z,26.40
2018-09-15T11:27:32.510Z,26.50
2018-09-15T11:29:36.625Z,26.60
2018-09-15T11:31:44.159Z,26.50
2018-09-15T11:33:49.494Z,26.80
2018-09-15T11:35:54.233Z,26.90
2018-09-15T11:37:59.619Z,27.10
2018-09-15T11:40:06.498Z,27.10
2018-09-15T11:42:12.520Z,27.30
2018-09-15T11:44:19.209Z,27.40
2018-09-15T11:46:23.863Z,27.40
2018-09-15T11:48:29.195Z,27.10
2018-09-15T11:50:36.816Z,26.80
2018-09-15T11:52:42.833Z,26.50
2018-09-15T11:54:48.821Z,26.40
2018-09-15T11:56:54.760Z,26.50
2018-09-15T11:59:01.868Z,26.50
2018-09-15T12:01:08.510Z,26.50
2018-09-15T12:03:15.662Z,26.60
2018-09-15T12:05:19.807Z,26.30
2018-09-15T12:07:23.837Z,26.10
2018-09-15T12:09:30.205Z,26.10
2018-09-15T12:11:34.366Z,26.10
2018-09-15T12:13:38.346Z,26.20
2018-09-15T12:15:42.809Z,26.20
2018-09-15T12:17:47.752Z,26.40
2018-09-15T12:19:51.825Z,26.50
2018-09-15T12:21:58.214Z,26.20
2018-09-15T12:24:02.346Z,26.20
2018-09-15T12:26:07.216Z,26.40
2018-09-15T12:28:13.222Z,26.70
2018-09-15T12:30:17.195Z,26.80
2018-09-15T12:32:21.217Z,27.00
2018-09-15T12:34:25.639Z,27.00
2018-09-15T12:36:32.337Z,27.00
2018-09-15T12:38:36.559Z,27.20
2018-09-15T12:40:40.913Z,27.40
2018-09-15T12:42:45.708Z,27.60
2018-09-15T12:44:50.771Z,27.60
2018-09-15T12:46:54.729Z,27.60
2018-09-15T12:48:58.987Z,27.60
2018-09-15T12:51:02.979Z,27.80
2018-09-15T12:53:08.494Z,27.80
2018-09-15T12:55:12.552Z,27.80
2018-09-15T12:57:16.480Z,27.80
2018-09-15T12:59:21.580Z,27.50
2018-09-15T13:01:26.204Z,27.60
2018-09-15T13:03:31.409Z,27.40
2018-09-15T13:05:35.715Z,27.50
2018-09-15T13:07:40.313Z,27.60
2018-09-15T13:09:45.265Z,27.50
2018-09-15T13:11:51.730Z,27.50
2018-09-15T13:13:55.842Z,27.30
2018-09-15T13:16:01.421Z,27.50
2018-09-15T13:18:06.462Z,27.40
2018-09-15T13:20:11.410Z,27.40
2018-09-15T13:22:15.421Z,27.80
2018-09-15T13:24:20.882Z,27.90
2018-09-15T13:26:25.003Z,28.10
2018-09-15T13:28:29.025Z,28.00
2018-09-15T13:30:33.621Z,28.00
2018-09-15T13:32:37.630Z,27.90
2018-09-15T13:34:45.222Z,27.70
2018-09-15T13:36:50.532Z,27.60
2018-09-15T13:38:55.547Z,27.70
2018-09-15T13:40:59.526Z,27.40
2018-09-15T13:43:03.570Z,27.50
2018-09-15T13:45:08.282Z,27.60
2018-09-15T13:47:12.319Z,27.50
2018-09-15T13:49:17.289Z,27.10
2018-09-15T13:51:22.658Z,26.90
2018-09-15T13:53:27.660Z,26.80
2018-09-15T13:55:33.388Z,26.50
2018-09-15T13:57:38.435Z,26.30
2018-09-15T13:59:44.771Z,26.00
2018-09-15T14:01:50.941Z,26.10
2018-09-15T14:03:54.968Z,26.30
2018-09-15T14:06:00.664Z,26.60
2018-09-15T14:08:06.310Z,26.50
2018-09-15T14:10:11.791Z,26.40
2018-09-15T14:12:15.735Z,26.80
2018-09-15T14:14:23.534Z,27.40
2018-09-15T14:16:34.376Z,27.70
2018-09-15T14:18:38.362Z,27.70
2018-09-15T14:20:42.770Z,27.70
2018-09-15T14:22:47.608Z,27.40
2018-09-15T14:24:52.415Z,27.30
2018-09-15T14:26:56.474Z,27.10
2018-09-15T14:29:01.383Z,27.10
2018-09-15T14:31:06.389Z,27.20
2018-09-15T14:33:12.287Z,27.30
2018-09-15T14:35:16.360Z,27.40
2018-09-15T14:37:21.468Z,27.30
2018-09-15T14:39:26.504Z,27.10
2018-09-15T14:41:32.205Z,27.10
2018-09-15T14:43:36.830Z,27.10
2018-09-15T14:45:42.436Z,27.40
2018-09-15T14:47:46.437Z,27.70
2018-09-15T14:49:50.664Z,27.70
2018-09-15T14:51:55.685Z,27.60
2018-09-15T14:54:00.664Z,28.00
2018-09-15T14:56:05.852Z,28.40
2018-09-15T14:58:12.240Z,28.60
2018-09-15T15:00:16.672Z,28.80
2018-09-15T15:02:21.963Z,29.50
2018-09-15T15:04:26.571Z,30.60
2018-09-15T15:06:31.388Z,31.20
2018-09-15T15:08:35.426Z,31.70
2018-09-15T15:10:42.732Z,31.50
2018-09-15T15:12:47.735Z,30.70
2018-09-15T15:14:52.426Z,29.90
2018-09-15T15:16:58.468Z,30.50
2018-09-15T15:21:13.236Z,31.10
2018-09-15T15:23:17.281Z,31.40
2018-09-15T15:25:22.238Z,31.30
2018-09-15T15:27:26.225Z,31.40
2018-09-15T15:29:31.341Z,31.70
2018-09-15T15:31:37.407Z,31.90
2018-09-15T15:33:42.046Z,31.20
2018-09-15T15:35:46.022Z,30.70
2018-09-15T15:37:51.386Z,30.20
2018-09-15T15:39:57.852Z,30.40
2018-09-15T15:42:07.324Z,30.10
2018-09-15T15:44:16.299Z,29.60
2018-09-15T15:46:20.908Z,29.30
2018-09-15T15:48:25.737Z,28.60
2018-09-15T15:50:32.778Z,28.10
2018-09-15T15:52:37.600Z,27.90
2018-09-15T15:54:43.123Z,27.80
2018-09-15T15:56:49.093Z,27.60
2018-09-15T15:58:54.413Z,27.80
2018-09-15T16:00:59.389Z,28.30
2018-09-15T16:03:04.314Z,28.50
2018-09-15T16:05:09.783Z,28.50
2018-09-15T16:07:15.750Z,28.10
2018-09-15T16:09:21.570Z,27.50
2018-09-15T16:11:26.209Z,27.00
2018-09-15T16:13:36.417Z,26.70
2018-09-15T16:15:40.438Z,26.40
2018-09-15T16:17:45.323Z,26.30
2018-09-15T16:19:51.234Z,25.90
2018-09-15T16:21:55.364Z,25.70
2018-09-15T16:24:04.668Z,25.30
2018-09-15T16:26:11.255Z,25.10
2018-09-15T16:28:17.364Z,25.20
2018-09-15T16:30:42.366Z,25.00
2018-09-15T16:32:46.429Z,24.90
2018-09-15T16:34:53.066Z,24.70
2018-09-15T16:36:58.154Z,24.90
2018-09-15T16:39:06.582Z,25.00
2018-09-15T16:41:15.096Z,25.10
2018-09-15T16:43:19.667Z,25.20
2018-09-15T16:45:24.938Z,25.40
2018-09-15T16:47:29.353Z,25.30
2018-09-15T16:49:33.662Z,25.40
2018-09-15T16:51:38.465Z,25.30
2018-09-15T16:53:44.105Z,25.30
2018-09-15T16:55:48.344Z,25.20
2018-09-15T16:57:52.458Z,25.30
2018-09-15T16:59:57.054Z,25.30
2018-09-15T17:02:01.413Z,25.00
2018-09-15T17:04:08.381Z,25.00
2018-09-15T17:06:12.466Z,24.80
2018-09-15T17:08:16.505Z,24.70
2018-09-15T17:10:21.060Z,24.60
2018-09-15T17:12:25.764Z,24.60
2018-09-15T17:14:30.604Z,24.50
2018-09-15T17:16:37.023Z,24.50
2018-09-15T17:18:41.153Z,24.50
2018-09-15T17:20:46.613Z,24.40
2018-09-15T17:22:51.184Z,24.20
2018-09-15T17:24:55.191Z,24.10
2018-09-15T17:26:59.609Z,24.00
2018-09-15T17:29:04.640Z,23.90
2018-09-15T17:31:08.725Z,23.70
2018-09-15T17:33:14.232Z,23.70
2018-09-15T17:35:18.613Z,23.70
2018-09-15T17:37:23.413Z,23.70
2018-09-15T17:39:28.337Z,23.60
2018-09-15T17:41:33.649Z,23.50
2018-09-15T17:43:37.700Z,23.30
2018-09-15T17:45:43.402Z,23.20
2018-09-15T17:47:49.724Z,23.10
2018-09-15T17:49:55.368Z,23.00
2018-09-15T17:51:59.378Z,22.80
2018-09-15T17:54:03.656Z,22.60
2018-09-15T17:56:07.649Z,22.40
2018-09-15T17:58:11.669Z,22.30
2018-09-15T18:00:15.725Z,22.10
2018-09-15T18:02:21.454Z,22.00
2018-09-15T18:04:25.502Z,22.00
2018-09-15T18:06:29.821Z,21.80
2018-09-15T18:08:34.740Z,21.70
2018-09-15T18:10:41.281Z,21.60
2018-09-15T18:12:46.881Z,21.30
2018-09-15T18:14:52.679Z,21.20
2018-09-15T18:17:02.582Z,21.10
2018-09-15T18:19:09.969Z,20.90
2018-09-15T18:21:14.827Z,20.60
2018-09-15T18:23:20.284Z,20.40
2018-09-15T18:25:26.484Z,20.30
2018-09-15T18:27:31.310Z,20.30
2018-09-15T18:29:37.489Z,20.10
2018-09-15T18:31:42.543Z,20.00
2018-09-15T18:33:48.506Z,19.90
2018-09-15T18:35:54.124Z,19.80
2018-09-15T18:37:58.260Z,19.80
2018-09-15T18:40:07.964Z,19.70
2018-09-15T18:42:13.296Z,19.60
2018-09-15T18:44:17.336Z,19.80
2018-09-15T18:46:23.702Z,19.90
2018-09-15T18:48:31.347Z,20.00
2018-09-15T18:50:36.214Z,19.90
2018-09-15T18:52:45.504Z,19.90
2018-09-15T18:54:50.043Z,19.90
2018-09-15T18:56:56.808Z,19.80
2018-09-15T18:59:00.867Z,19.90
2018-09-15T19:01:07.025Z,19.80
2018-09-15T19:03:15.330Z,19.80
2018-09-15T19:05:20.326Z,19.90
2018-09-15T19:07:28.081Z,19.70
2018-09-15T19:09:33.604Z,19.50
2018-09-15T19:11:41.767Z,19.50
2018-09-15T19:13:50.644Z,19.60
2018-09-15T19:15:56.453Z,19.60
2018-09-15T19:18:01.470Z,19.60
2018-09-15T19:20:06.778Z,19.70
2018-09-15T19:22:12.377Z,19.60
2018-09-15T19:24:16.383Z,19.60
2018-09-15T19:26:22.161Z,19.50
2018-09-15T19:28:27.233Z,19.40
2018-09-15T19:30:32.213Z,19.40
2018-09-15T19:32:39.739Z,19.40
2018-09-15T19:34:46.514Z,19.30
2018-09-15T19:36:52.157Z,19.10
2018-09-15T19:38:57.321Z,19.00
2018-09-15T19:41:02.624Z,18.90
2018-09-15T19:43:06.726Z,18.80
2018-09-15T19:45:12.531Z,18.70
2018-09-15T19:47:18.221Z,18.60
2018-09-15T19:49:24.001Z,18.50
2018-09-15T19:51:33.585Z,18.60
2018-09-15T19:53:37.523Z,18.70
2018-09-15T19:55:45.229Z,18.70
2018-09-15T19:57:52.978Z,18.70
2018-09-15T19:59:57.523Z,18.60
2018-09-15T20:02:03.092Z,18.60
2018-09-15T20:04:08.547Z,18.60
2018-09-15T20:06:13.488Z,18.60
2018-09-15T20:08:19.676Z,18.60
2018-09-15T20:10:23.771Z,18.70
2018-09-15T20:12:30.442Z,18.60
2018-09-15T20:14:37.549Z,18.70
2018-09-15T20:16:40.124Z,18.70
2018-09-15T20:18:47.259Z,18.80
2018-09-15T20:20:51.417Z,18.80
2018-09-15T20:22:56.171Z,18.80
2018-09-15T20:25:03.040Z,18.70
2018-09-15T20:27:11.541Z,18.60
2018-09-15T20:29:16.632Z,18.50
2018-09-15T20:31:21.537Z,18.40
2018-09-15T20:33:25.510Z,18.20
2018-09-15T20:35:29.555Z,18.20
2018-09-15T20:37:33.549Z,18.30
2018-09-15T20:39:38.912Z,18.30
2018-09-15T20:41:43.858Z,18.30
2018-09-15T20:43:51.661Z,18.40
2018-09-15T20:45:57.280Z,18.50
2018-09-15T20:48:01.378Z,18.40
2018-09-15T20:50:05.457Z,18.40
2018-09-15T20:52:12.206Z,18.30
2018-09-15T20:54:17.741Z,18.00
2018-09-15T20:56:24.216Z,17.80
2018-09-15T20:58:30.385Z,17.70
2018-09-15T21:00:35.560Z,17.60
2018-09-15T21:02:43.421Z,17.60
2018-09-15T21:04:47.711Z,17.70
2018-09-15T21:06:55.412Z,17.70
2018-09-15T21:08:59.489Z,17.80
2018-09-15T21:11:06.951Z,17.80
2018-09-15T21:13:11.911Z,17.80
2018-09-15T21:15:18.098Z,17.80
2018-09-15T21:17:24.673Z,17.90
2018-09-15T21:19:29.508Z,17.80
2018-09-15T21:21:33.493Z,17.70
2018-09-15T21:23:44.207Z,17.40
2018-09-15T21:25:49.765Z,17.10
2018-09-15T21:27:53.814Z,17.00
2018-09-15T21:29:58.494Z,16.90
2018-09-15T21:32:03.263Z,16.90
2018-09-15T21:34:08.584Z,17.00
2018-09-15T21:36:14.140Z,17.10
2018-09-15T21:38:18.763Z,17.30
2018-09-15T21:40:23.583Z,17.30
2018-09-15T21:42:28.481Z,17.40
2018-09-15T21:44:32.530Z,17.50
2018-09-15T21:46:38.405Z,17.60
2018-09-15T21:48:42.781Z,17.50
2018-09-15T21:50:49.270Z,17.60
2018-09-15T21:52:54.521Z,17.60
2018-09-15T21:55:04.662Z,17.60
2018-09-15T21:57:09.070Z,17.60
2018-09-15T21:59:13.053Z,17.50
2018-09-15T22:01:19.169Z,17.50
2018-09-15T22:03:23.759Z,17.50
2018-09-15T22:05:28.787Z,17.50
2018-09-15T22:07:37.139Z,17.40
2018-09-15T22:09:42.017Z,17.30
2018-09-15T22:11:46.964Z,17.20
2018-09-15T22:13:52.810Z,17.20
2018-09-15T22:15:58.111Z,17.10
2018-09-15T22:18:03.234Z,17.10
2018-09-15T22:20:08.284Z,17.00
2018-09-15T22:22:13.509Z,16.90
2018-09-15T22:24:19.544Z,16.70
2018-09-15T22:26:23.578Z,16.80
2018-09-15T22:28:30.340Z,16.60
2018-09-15T22:30:35.093Z,16.40
2018-09-15T22:32:41.510Z,16.30
2018-09-15T22:34:48.081Z,16.30
2018-09-15T22:36:53.460Z,16.40
2018-09-15T22:38:58.522Z,16.50
2018-09-15T22:41:03.230Z,16.60
2018-09-15T22:43:07.945Z,16.70
2018-09-15T22:45:14.349Z,16.60
2018-09-15T22:47:19.750Z,16.40
2018-09-15T22:49:24.682Z,16.40
2018-09-15T22:51:29.933Z,16.40
2018-09-15T22:53:36.648Z,16.30
2018-09-15T22:55:41.458Z,16.40
2018-09-15T22:57:47.804Z,16.50
2018-09-15T22:59:51.796Z,16.40
2018-09-15T23:01:55.810Z,16.20
2018-09-15T23:04:05.345Z,15.90
2018-09-15T23:06:09.928Z,15.70
2018-09-15T23:08:14.572Z,15.70
2018-09-15T23:10:19.169Z,15.50
2018-09-15T23:12:23.193Z,15.50
2018-09-15T23:14:27.812Z,15.50
2018-09-15T23:16:35.802Z,15.60
2018-09-15T23:18:41.614Z,15.60
2018-09-15T23:20:46.372Z,15.50
2018-09-15T23:22:52.334Z,15.30
2018-09-15T23:24:57.386Z,15.20
2018-09-15T23:27:01.393Z,15.20
2018-09-15T23:29:06.725Z,15.20
2018-09-15T23:31:10.688Z,15.10
2018-09-15T23:33:14.715Z,15.20
2018-09-15T23:35:18.952Z,15.30
2018-09-15T23:37:24.212Z,15.30
2018-09-15T23:39:28.481Z,15.60
2018-09-15T23:41:32.853Z,15.40
2018-09-15T23:43:38.224Z,15.20
2018-09-15T23:45:43.560Z,15.30
2018-09-15T23:47:50.015Z,15.30
2018-09-15T23:49:56.254Z,15.30
2018-09-15T23:52:01.237Z,15.20
2018-09-15T23:54:06.850Z,15.20
2018-09-15T23:56:11.497Z,15.30
2018-09-15T23:58:15.497Z,15.30
